Time,TemperatureF,DewpointF,PressureIn,WindDirection,WindDirectionDegrees,WindSpeedMPH,WindSpeedGustMPH,Humidity,HourlyPrecipIn,Conditions,Clouds,dailyrainin,SoftwareType,DateUTC
2013-03-11 00:13:00,35.0,32.0,30.27,SE,145,0.0,0.0,90,0.00,,,0.00,weatherlink.com 1.10,2013-03-11 04:13:00,
2013-03-11 00:28:00,34.6,32.0,30.27,SE,145,0.0,0.0,91,0.00,,,0.00,weatherlink.com 1.10,2013-03-11 04:28:00,
2013-03-11 00:43:00,34.3,32.0,30.27,SE,145,0.0,0.0,92,0.00,,,0.00,weatherlink.com 1.10,2013-03-11 04:43:00,
2013-03-11 00:58:00,34.4,33.0,30.26,SE,145,0.0,0.0,93,0.00,,,0.00,weatherlink.com 1.10,2013-03-11 04:58:00,
2013-03-11 01:13:00,34.9,33.0,30.24,SE,145,1.0,2.0,94,0.00,,,0.00,weatherlink.com 1.10,2013-03-11 05:13:00,
2013-03-11 01:28:00,35.3,34.0,30.25,SE,145,0.0,1.0,94,0.00,,,0.00,weatherlink.com 1.10,2013-03-11 05:28:00,
2013-03-11 01:43:00,35.6,34.0,30.25,SE,145,0.0,0.0,94,0.00,,,0.00,weatherlink.com 1.10,2013-03-11 05:43:00,
2013-03-11 01:58:00,35.8,34.0,30.24,SE,145,0.0,0.0,93,0.00,,,0.00,weatherlink.com 1.10,2013-03-11 05:58:00,
2013-03-11 02:13:00,36.1,34.0,30.25,SE,145,0.0,0.0,93,0.00,,,0.00,weatherlink.com 1.10,2013-03-11 06:13:00,
2013-03-11 02:28:00,36.3,35.0,30.24,SE,145,0.0,0.0,94,0.00,,,0.00,weatherlink.com 1.10,2013-03-11 06:28:00,
2013-03-11 02:43:00,36.5,35.0,30.23,SE,145,0.0,0.0,94,0.00,,,0.00,weatherlink.com 1.10,2013-03-11 06:43:00,
2013-03-11 02:58:00,36.9,35.0,30.23,SE,145,0.0,0.0,94,0.00,,,0.00,weatherlink.com 1.10,2013-03-11 06:58:00,
2013-03-11 03:28:00,37.3,35.0,30.22,SE,145,0.0,0.0,92,0.00,,,0.00,weatherlink.com 1.10,2013-03-11 07:28:00,
2013-03-11 03:43:00,37.4,35.0,30.22,SE,145,0.0,0.0,92,0.00,,,0.00,weatherlink.com 1.10,2013-03-11 07:43:00,
2013-03-11 03:58:00,37.5,35.0,30.21,SE,145,0.0,0.0,92,0.00,,,0.00,weatherlink.com 1.10,2013-03-11 07:58:00,
2013-03-11 04:13:00,37.8,36.0,30.20,SE,145,0.0,2.0,92,0.00,,,0.00,weatherlink.com 1.10,2013-03-11 08:13:00,
2013-03-11 04:28:00,38.1,36.0,30.20,SE,145,0.0,1.0,92,0.00,,,0.00,weatherlink.com 1.10,2013-03-11 08:28:00,
2013-03-11 04:43:00,38.3,36.0,30.20,SE,145,0.0,0.0,92,0.00,,,0.00,weatherlink.com 1.10,2013-03-11 08:43:00,
2013-03-11 04:58:00,38.5,36.0,30.20,SE,145,0.0,0.0,92,0.00,,,0.00,weatherlink.com 1.10,2013-03-11 08:58:00,
2013-03-11 05:13:00,38.7,37.0,30.20,SE,145,0.0,0.0,92,0.00,,,0.00,weatherlink.com 1.10,2013-03-11 09:13:00,
2013-03-11 05:28:00,38.9,37.0,30.20,SE,145,0.0,2.0,92,0.00,,,0.00,weatherlink.com 1.10,2013-03-11 09:28:00,
2013-03-11 05:43:00,39.1,37.0,30.19,SE,145,0.0,2.0,93,0.00,,,0.00,weatherlink.com 1.10,2013-03-11 09:43:00,
2013-03-11 05:58:00,39.3,38.0,30.19,SE,145,1.0,2.0,93,0.00,,,0.00,weatherlink.com 1.10,2013-03-11 09:58:00,
2013-03-11 06:13:00,39.4,37.0,30.20,SE,145,0.0,0.0,92,0.00,,,0.00,weatherlink.com 1.10,2013-03-11 10:13:00,
2013-03-11 06:28:00,39.6,38.0,30.19,SE,145,0.0,2.0,93,0.00,,,0.00,weatherlink.com 1.10,2013-03-11 10:28:00,
2013-03-11 06:43:00,39.7,38.0,30.19,SE,144,0.0,3.0,93,0.00,,,0.00,weatherlink.com 1.10,2013-03-11 10:43:00,
2013-03-11 06:58:00,39.8,38.0,30.19,SE,144,0.0,1.0,93,0.00,,,0.00,weatherlink.com 1.10,2013-03-11 10:58:00,
2013-03-11 07:13:00,40.0,38.0,30.18,SE,144,0.0,2.0,93,0.00,,,0.00,weatherlink.com 1.10,2013-03-11 11:13:00,
2013-03-11 07:28:00,40.1,38.0,30.18,SSE,150,0.0,1.0,93,0.00,,,0.00,weatherlink.com 1.10,2013-03-11 11:28:00,
2013-03-11 07:43:00,40.3,39.0,30.18,SSE,150,0.0,0.0,94,0.00,,,0.00,weatherlink.com 1.10,2013-03-11 11:43:00,
2013-03-11 07:58:00,40.6,39.0,30.19,SE,146,2.0,2.0,94,0.00,,,0.00,weatherlink.com 1.10,2013-03-11 11:58:00,
2013-03-11 08:13:00,40.9,39.0,30.19,ESE,116,1.0,3.0,93,0.00,,,0.00,weatherlink.com 1.10,2013-03-11 12:13:00,
2013-03-11 08:28:00,41.1,39.0,30.19,ESE,115,2.0,3.0,93,0.00,,,0.00,weatherlink.com 1.10,2013-03-11 12:28:00,
2013-03-11 08:43:00,41.3,40.0,30.19,SSE,148,0.0,3.0,93,0.00,,,0.00,weatherlink.com 1.10,2013-03-11 12:43:00,
2013-03-11 08:58:00,41.5,40.0,30.20,SSE,155,4.0,4.0,93,0.00,,,0.00,weatherlink.com 1.10,2013-03-11 12:58:00,
2013-03-11 09:13:00,41.8,40.0,30.20,ESE,103,1.0,4.0,93,0.00,,,0.00,weatherlink.com 1.10,2013-03-11 13:13:00,
2013-03-11 09:28:00,42.0,40.0,30.21,SE,144,2.0,3.0,93,0.00,,,0.00,weatherlink.com 1.10,2013-03-11 13:28:00,
2013-03-11 09:43:00,42.2,40.0,30.20,SE,138,2.0,3.0,93,0.00,,,0.00,weatherlink.com 1.10,2013-03-11 13:43:00,
2013-03-11 09:58:00,42.7,41.0,30.20,SE,138,0.0,3.0,92,0.00,,,0.00,weatherlink.com 1.10,2013-03-11 13:58:00,
2013-03-11 10:13:00,43.3,41.0,30.20,ESE,123,1.0,3.0,91,0.00,,,0.00,weatherlink.com 1.10,2013-03-11 14:13:00,
2013-03-11 10:29:00,44.2,42.0,30.20,SE,126,0.0,3.0,90,0.00,,,0.00,weatherlink.com 1.10,2013-03-11 14:29:00,
2013-03-11 10:44:00,45.1,42.0,30.19,SE,141,1.0,3.0,89,0.00,,,0.00,weatherlink.com 1.10,2013-03-11 14:44:00,
2013-03-11 10:59:00,46.0,42.0,30.18,ESE,122,0.0,3.0,87,0.00,,,0.00,weatherlink.com 1.10,2013-03-11 14:59:00,
2013-03-11 11:14:00,46.6,43.0,30.18,SSE,153,0.0,2.0,86,0.00,,,0.00,weatherlink.com 1.10,2013-03-11 15:14:00,
2013-03-11 11:29:00,47.8,44.0,30.18,SW,236,1.0,4.0,85,0.00,,,0.00,weatherlink.com 1.10,2013-03-11 15:29:00,
2013-03-11 11:44:00,48.8,44.0,30.18,ESE,122,4.0,4.0,83,0.00,,,0.00,weatherlink.com 1.10,2013-03-11 15:44:00,
2013-03-11 11:59:00,50.5,44.0,30.17,SSE,148,1.0,6.0,79,0.00,,,0.00,weatherlink.com 1.10,2013-03-11 15:59:00,
2013-03-11 12:14:00,52.2,45.0,30.16,SW,229,4.0,5.0,75,0.00,,,0.00,weatherlink.com 1.10,2013-03-11 16:14:00,
2013-03-11 12:29:00,53.5,44.0,30.16,SSW,207,1.0,6.0,71,0.00,,,0.00,weatherlink.com 1.10,2013-03-11 16:29:00,
2013-03-11 12:44:00,54.7,44.0,30.16,SSW,200,1.0,5.0,68,0.00,,,0.00,weatherlink.com 1.10,2013-03-11 16:44:00,
2013-03-11 12:59:00,55.0,44.0,30.15,SSE,163,1.0,5.0,67,0.00,,,0.00,weatherlink.com 1.10,2013-03-11 16:59:00,
2013-03-11 13:14:00,55.1,45.0,30.14,SE,127,0.0,4.0,68,0.00,,,0.00,weatherlink.com 1.10,2013-03-11 17:14:00,
2013-03-11 13:29:00,55.7,43.0,30.13,ESE,112,0.0,8.0,63,0.00,,,0.00,weatherlink.com 1.10,2013-03-11 17:29:00,
2013-03-11 13:44:00,55.6,43.0,30.13,SSW,199,1.0,4.0,63,0.00,,,0.00,weatherlink.com 1.10,2013-03-11 17:44:00,
2013-03-11 13:59:00,55.9,44.0,30.12,South,184,0.0,4.0,64,0.00,,,0.00,weatherlink.com 1.10,2013-03-11 17:59:00,
2013-03-11 14:14:00,56.2,44.0,30.12,ESE,119,2.0,6.0,65,0.00,,,0.00,weatherlink.com 1.10,2013-03-11 18:14:00,
2013-03-11 14:29:00,55.9,45.0,30.11,ENE,76,0.0,6.0,68,0.00,,,0.00,weatherlink.com 1.10,2013-03-11 18:29:00,
2013-03-11 14:44:00,55.3,45.0,30.10,ENE,70,3.0,7.0,69,0.00,,,0.00,weatherlink.com 1.10,2013-03-11 18:44:00,
2013-03-11 15:00:00,55.1,45.0,30.10,East,96,2.0,5.0,70,0.00,,,0.00,weatherlink.com 1.10,2013-03-11 19:00:00,
2013-03-11 15:14:00,54.9,46.0,30.09,ESE,120,4.0,6.0,71,0.00,,,0.00,weatherlink.com 1.10,2013-03-11 19:14:00,
2013-03-11 15:29:00,54.6,46.0,30.09,ENE,78,2.0,6.0,73,0.00,,,0.00,weatherlink.com 1.10,2013-03-11 19:29:00,
2013-03-11 15:44:00,54.4,46.0,30.09,East,84,1.0,7.0,74,0.00,,,0.00,weatherlink.com 1.10,2013-03-11 19:44:00,
2013-03-11 15:59:00,54.0,47.0,30.08,East,81,1.0,7.0,76,0.00,,,0.00,weatherlink.com 1.10,2013-03-11 19:59:00,
2013-03-11 16:14:00,53.6,46.0,30.08,SE,140,2.0,7.0,76,0.00,,,0.00,weatherlink.com 1.10,2013-03-11 20:14:00,
2013-03-11 16:30:00,52.7,46.0,30.07,SE,132,3.0,8.0,78,0.00,,,0.00,weatherlink.com 1.10,2013-03-11 20:30:00,
2013-03-11 16:45:00,52.4,46.0,30.07,ESE,109,4.0,6.0,79,0.00,,,0.00,weatherlink.com 1.10,2013-03-11 20:45:00,
2013-03-11 17:00:00,52.3,46.0,30.07,East,80,5.0,8.0,79,0.00,,,0.00,weatherlink.com 1.10,2013-03-11 21:00:00,
2013-03-11 17:15:00,52.1,46.0,30.07,NE,44,4.0,8.0,80,0.00,,,0.00,weatherlink.com 1.10,2013-03-11 21:15:00,
2013-03-11 17:30:00,52.0,46.0,30.06,NE,49,3.0,8.0,81,0.00,,,0.00,weatherlink.com 1.10,2013-03-11 21:30:00,
2013-03-11 17:45:00,51.5,46.0,30.06,East,92,3.0,7.0,81,0.00,,,0.00,weatherlink.com 1.10,2013-03-11 21:45:00,
2013-03-11 18:00:00,51.1,46.0,30.05,East,98,5.0,8.0,82,0.00,,,0.00,weatherlink.com 1.10,2013-03-11 22:00:00,
2013-03-11 18:15:00,50.8,46.0,30.05,East,80,3.0,8.0,84,0.00,,,0.00,weatherlink.com 1.10,2013-03-11 22:15:00,
2013-03-11 18:30:00,50.4,46.0,30.05,SE,135,2.0,7.0,84,0.00,,,0.00,weatherlink.com 1.10,2013-03-11 22:30:00,
2013-03-11 18:45:00,50.0,46.0,30.05,SE,136,3.0,7.0,85,0.00,,,0.00,weatherlink.com 1.10,2013-03-11 22:45:00,
2013-03-11 19:00:00,49.4,45.0,30.05,SE,128,2.0,5.0,86,0.00,,,0.00,weatherlink.com 1.10,2013-03-11 23:00:00,
2013-03-11 19:15:00,49.1,46.0,30.06,ESE,121,2.0,8.0,88,0.00,,,0.00,weatherlink.com 1.10,2013-03-11 23:15:00,
2013-03-11 19:30:00,48.8,45.0,30.05,SE,136,1.0,4.0,88,0.00,,,0.00,weatherlink.com 1.10,2013-03-11 23:30:00,
2013-03-11 19:45:00,48.5,46.0,30.05,SE,124,1.0,4.0,89,0.00,,,0.00,weatherlink.com 1.10,2013-03-11 23:45:00,
2013-03-11 20:00:00,48.7,46.0,30.06,South,182,3.0,4.0,91,0.00,,,0.00,weatherlink.com 1.10,2013-03-12 00:00:00,
2013-03-11 20:15:00,49.2,47.0,30.06,SSE,154,1.0,3.0,91,0.00,,,0.00,weatherlink.com 1.10,2013-03-12 00:15:00,
2013-03-11 20:30:00,49.5,47.0,30.07,SSE,165,4.0,6.0,91,0.00,,,0.00,weatherlink.com 1.10,2013-03-12 00:30:00,
2013-03-11 20:45:00,49.9,47.0,30.06,SSE,162,3.0,4.0,91,0.00,,,0.00,weatherlink.com 1.10,2013-03-12 00:45:00,
2013-03-11 21:00:00,50.0,48.0,30.04,SE,142,3.0,6.0,91,0.00,,,0.00,weatherlink.com 1.10,2013-03-12 01:00:00,
2013-03-11 21:15:00,49.9,48.0,30.04,SE,133,4.0,8.0,92,0.00,,,0.00,weatherlink.com 1.10,2013-03-12 01:15:00,
2013-03-11 21:30:00,49.9,48.0,30.04,SSW,207,2.0,5.0,92,0.00,,,0.00,weatherlink.com 1.10,2013-03-12 01:30:00,
2013-03-11 21:45:00,49.8,48.0,30.05,SE,125,3.0,5.0,92,0.00,,,0.00,weatherlink.com 1.10,2013-03-12 01:45:00,
2013-03-11 22:00:00,49.8,48.0,30.04,SE,128,4.0,5.0,93,0.00,,,0.00,weatherlink.com 1.10,2013-03-12 02:00:00,
2013-03-11 22:15:00,49.8,48.0,30.04,ESE,114,1.0,5.0,93,0.00,,,0.00,weatherlink.com 1.10,2013-03-12 02:15:00,
2013-03-11 22:30:00,49.7,48.0,30.04,ESE,115,0.0,4.0,92,0.00,,,0.00,weatherlink.com 1.10,2013-03-12 02:30:00,
2013-03-11 22:45:00,49.7,48.0,30.04,ESE,106,0.0,5.0,92,0.00,,,0.00,weatherlink.com 1.10,2013-03-12 02:45:00,
2013-03-11 23:00:00,49.8,48.0,30.03,SSE,160,1.0,5.0,93,0.00,,,0.00,weatherlink.com 1.10,2013-03-12 03:00:00,
2013-03-11 23:15:00,49.9,48.0,30.03,ESE,123,1.0,7.0,93,0.00,,,0.00,weatherlink.com 1.10,2013-03-12 03:15:00,
2013-03-11 23:30:00,50.1,48.0,30.04,SSE,147,1.0,5.0,93,0.00,,,0.00,weatherlink.com 1.10,2013-03-12 03:30:00,
2013-03-11 23:45:00,50.2,48.0,30.04,SSE,164,0.0,7.0,93,0.00,,,0.00,weatherlink.com 1.10,2013-03-12 03:45:00,